createdAt,value
2023-02-11T00:00:07.808Z,23.08
2023-02-11T00:01:40.210Z,24.42
2023-02-11T00:03:12.307Z,22.55
2023-02-11T00:04:44.529Z,22.15
2023-02-11T00:06:17.055Z,24.15
2023-02-11T00:07:49.093Z,22.55
2023-02-11T00:09:21.258Z,22.50
2023-02-11T00:10:58.085Z,22.80
2023-02-11T00:12:30.701Z,22.88
2023-02-11T00:14:08.566Z,23.63
2023-02-11T00:15:41.880Z,22.10
2023-02-11T00:17:14.202Z,23.00
2023-02-11T00:18:46.881Z,22.83
2023-02-11T00:20:19.034Z,21.65
2023-02-11T00:21:51.466Z,21.90
2023-02-11T00:23:25.892Z,22.45
2023-02-11T00:25:01.216Z,21.95
2023-02-11T00:26:35.611Z,21.63
2023-02-11T00:28:08.569Z,22.20
2023-02-11T00:31:17.665Z,20.85
2023-02-11T00:32:50.036Z,22.05
2023-02-11T00:34:32.043Z,22.23
2023-02-11T00:36:07.105Z,21.50
2023-02-11T00:37:39.419Z,23.48
2023-02-11T00:39:11.896Z,22.63
2023-02-11T00:40:44.174Z,20.95
2023-02-11T00:42:16.464Z,23.65
2023-02-11T00:43:50.529Z,20.33
2023-02-11T00:45:24.367Z,21.02
2023-02-11T00:46:56.574Z,22.52
2023-02-11T00:48:35.439Z,20.10
2023-02-11T00:50:11.574Z,20.60
2023-02-11T00:53:31.323Z,20.00
2023-02-11T00:56:37.218Z,19.02
2023-02-11T00:58:09.352Z,19.83
2023-02-11T00:59:41.609Z,20.95
2023-02-11T01:01:14.144Z,20.20
2023-02-11T01:02:53.113Z,19.83
2023-02-11T01:04:25.174Z,21.52
2023-02-11T01:06:04.042Z,21.15
2023-02-11T01:07:37.607Z,19.75
2023-02-11T01:09:09.728Z,20.80
2023-02-11T01:10:41.917Z,20.48
2023-02-11T01:12:15.333Z,20.90
2023-02-11T01:13:50.337Z,19.77
2023-02-11T01:15:22.910Z,20.77
2023-02-11T01:18:30.637Z,19.02
2023-02-11T01:20:10.679Z,18.80
2023-02-11T01:21:42.949Z,19.63
2023-02-11T01:23:15.352Z,18.40
2023-02-11T01:24:49.313Z,20.70
2023-02-11T01:26:21.470Z,20.60
2023-02-11T01:27:53.541Z,19.15
2023-02-11T01:29:26.187Z,18.85
2023-02-11T01:31:01.287Z,21.17
2023-02-11T01:32:34.371Z,19.08
2023-02-11T01:34:07.354Z,18.60
2023-02-11T01:35:42.265Z,18.00
2023-02-11T01:37:14.526Z,17.88
2023-02-11T01:38:46.585Z,19.95
2023-02-11T01:40:19.089Z,18.38
2023-02-11T01:41:51.487Z,18.13
2023-02-11T01:43:24.876Z,17.63
2023-02-11T01:44:58.172Z,17.52
2023-02-11T01:46:38.428Z,18.35
2023-02-11T01:48:15.403Z,16.58
2023-02-11T01:49:58.435Z,16.83
2023-02-11T01:51:40.931Z,16.75
2023-02-11T01:53:31.650Z,17.27
2023-02-11T01:55:25.384Z,16.33
2023-02-11T01:57:18.064Z,17.08
2023-02-11T01:58:52.261Z,16.75
2023-02-11T02:00:39.440Z,16.60
2023-02-11T02:02:13.344Z,16.77
2023-02-11T02:03:46.885Z,17.10
2023-02-11T02:05:27.732Z,16.83
2023-02-11T02:07:04.483Z,16.83
2023-02-11T02:08:53.047Z,18.58
2023-02-11T02:10:27.019Z,17.92
2023-02-11T02:11:59.179Z,16.42
2023-02-11T02:13:32.786Z,16.30
2023-02-11T02:15:21.292Z,16.63
2023-02-11T02:16:55.666Z,17.27
2023-02-11T02:18:40.708Z,16.55
2023-02-11T02:20:17.977Z,16.58
2023-02-11T02:22:28.562Z,15.90
2023-02-11T02:24:25.347Z,16.02
2023-02-11T02:26:20.061Z,15.20
2023-02-11T02:28:10.936Z,15.52
2023-02-11T02:30:01.567Z,16.55
2023-02-11T02:31:58.846Z,13.80
2023-02-11T02:34:01.726Z,15.02
2023-02-11T02:35:47.506Z,16.05
2023-02-11T02:37:33.491Z,16.45
2023-02-11T02:39:12.711Z,15.30
2023-02-11T02:40:46.489Z,16.02
2023-02-11T02:42:19.234Z,16.75
2023-02-11T02:43:52.343Z,15.50
2023-02-11T02:45:24.711Z,15.90
2023-02-11T02:47:00.075Z,15.65
2023-02-11T02:48:40.523Z,15.10
2023-02-11T02:50:21.214Z,15.30
2023-02-11T02:52:23.825Z,14.75
2023-02-11T02:54:44.098Z,14.10
2023-02-11T02:56:45.247Z,14.00
2023-02-11T02:58:25.646Z,14.70
2023-02-11T03:00:12.360Z,14.15
2023-02-11T03:02:11.957Z,14.25
2023-02-11T03:04:07.629Z,14.18
2023-02-11T03:05:55.929Z,13.02
2023-02-11T03:07:42.836Z,13.77
2023-02-11T03:09:26.725Z,14.10
2023-02-11T03:11:00.056Z,13.43
2023-02-11T03:12:33.701Z,14.48
2023-02-11T03:14:11.220Z,13.10
2023-02-11T03:15:46.254Z,14.52
2023-02-11T03:17:18.914Z,14.48
2023-02-11T03:18:59.978Z,14.05
2023-02-11T03:20:37.230Z,14.25
2023-02-11T03:22:16.471Z,13.85
2023-02-11T03:23:57.591Z,13.73
2023-02-11T03:25:37.882Z,13.73
2023-02-11T03:27:16.804Z,14.27
2023-02-11T03:28:55.063Z,13.13
2023-02-11T03:30:33.368Z,14.45
2023-02-11T03:32:16.496Z,14.60
2023-02-11T03:33:51.560Z,14.20
2023-02-11T03:35:34.979Z,15.13
2023-02-11T03:38:58.989Z,15.00
2023-02-11T03:40:33.526Z,14.05
2023-02-11T03:42:07.732Z,15.13
2023-02-11T03:43:52.003Z,14.27
2023-02-11T03:45:25.708Z,14.50
2023-02-11T03:46:58.159Z,14.50
2023-02-11T03:48:53.216Z,14.85
2023-02-11T03:50:26.941Z,15.30
2023-02-11T03:52:01.582Z,14.07
2023-02-11T03:53:34.348Z,15.75
2023-02-11T03:55:11.835Z,14.90
2023-02-11T03:56:56.672Z,16.13
2023-02-11T03:58:28.721Z,15.05
2023-02-11T04:00:01.077Z,15.83
2023-02-11T04:01:43.701Z,11.98
2023-02-11T04:03:15.917Z,13.80
2023-02-11T04:04:48.141Z,15.88
2023-02-11T04:06:20.322Z,16.13
2023-02-11T04:07:52.467Z,17.23
2023-02-11T04:09:24.531Z,18.15
2023-02-11T04:10:56.653Z,17.30
2023-02-11T04:12:29.420Z,18.08
2023-02-11T04:14:01.568Z,17.88
2023-02-11T04:15:33.677Z,17.45
2023-02-11T04:17:06.040Z,19.30
2023-02-11T04:18:38.127Z,19.08
2023-02-11T04:20:10.882Z,20.40
2023-02-11T04:21:43.056Z,21.77
2023-02-11T04:23:15.126Z,21.10
2023-02-11T04:24:47.248Z,21.77
2023-02-11T04:26:19.400Z,24.55
2023-02-11T04:27:51.551Z,22.65
2023-02-11T04:29:23.736Z,23.98
2023-02-11T04:30:56.393Z,23.52
2023-02-11T04:32:28.607Z,25.00
2023-02-11T04:34:00.948Z,25.95
2023-02-11T04:35:33.097Z,24.50
2023-02-11T04:37:05.454Z,25.23
2023-02-11T04:38:37.633Z,26.73
2023-02-11T04:40:10.405Z,24.40
2023-02-11T04:41:42.603Z,26.48
2023-02-11T04:43:15.126Z,25.20
2023-02-11T04:44:47.392Z,25.55
2023-02-11T04:46:19.590Z,24.02
2023-02-11T04:47:51.751Z,25.00
2023-02-11T04:49:23.873Z,25.00
2023-02-11T04:50:55.962Z,23.85
2023-02-11T04:52:28.033Z,24.27
2023-02-11T04:54:00.479Z,23.75
2023-02-11T04:55:32.720Z,24.02
2023-02-11T04:57:08.102Z,23.70
2023-02-11T04:58:40.286Z,22.48
2023-02-11T05:00:13.032Z,22.27
2023-02-11T05:01:45.246Z,22.48
2023-02-11T05:03:17.684Z,22.63
2023-02-11T05:04:49.889Z,21.15
2023-02-11T05:06:22.095Z,21.80
2023-02-11T05:07:54.369Z,22.88
2023-02-11T05:09:26.610Z,21.67
2023-02-11T05:10:59.076Z,19.70
2023-02-11T05:12:31.251Z,20.13
2023-02-11T05:14:06.234Z,18.25
2023-02-11T05:15:41.571Z,19.20
2023-02-11T05:17:15.190Z,19.13
2023-02-11T05:18:47.456Z,18.30
2023-02-11T05:20:20.947Z,19.20
2023-02-11T05:22:02.553Z,17.90
2023-02-11T05:23:38.799Z,17.73
2023-02-11T05:25:14.394Z,17.90
2023-02-11T05:28:18.663Z,16.80
2023-02-11T05:29:50.876Z,17.88
2023-02-11T05:31:22.926Z,18.42
2023-02-11T05:32:55.089Z,18.20
2023-02-11T05:34:27.298Z,16.88
2023-02-11T05:36:12.629Z,20.52
2023-02-11T05:37:44.825Z,18.35
2023-02-11T05:39:16.876Z,18.02
2023-02-11T05:40:49.131Z,20.25
2023-02-11T05:42:21.511Z,18.02
2023-02-11T05:43:53.661Z,16.60
2023-02-11T05:45:25.696Z,19.52
2023-02-11T05:46:57.880Z,19.58
2023-02-11T05:48:30.247Z,18.60
2023-02-11T05:50:02.408Z,18.23
2023-02-11T05:51:37.326Z,18.67
2023-02-11T05:53:09.468Z,17.08
2023-02-11T05:54:41.882Z,17.85
2023-02-11T05:56:14.829Z,18.80
2023-02-11T05:59:19.075Z,18.08
2023-02-11T06:00:51.220Z,17.67
2023-02-11T06:02:23.586Z,17.70
2023-02-11T06:03:55.718Z,17.15
2023-02-11T06:05:31.307Z,17.40
2023-02-11T06:07:04.060Z,17.50
2023-02-11T06:08:39.055Z,17.65
2023-02-11T06:10:13.033Z,18.42
2023-02-11T06:11:45.267Z,17.27
2023-02-11T06:13:18.963Z,17.17
2023-02-11T06:14:51.178Z,16.70
2023-02-11T06:16:23.346Z,18.48
2023-02-11T06:17:55.498Z,17.65
2023-02-11T06:19:27.709Z,16.83
2023-02-11T06:21:00.293Z,18.63
2023-02-11T06:22:32.516Z,18.10
2023-02-11T06:24:07.313Z,17.67
2023-02-11T06:25:39.627Z,17.55
2023-02-11T06:27:11.916Z,19.67
2023-02-11T06:28:44.222Z,17.33
2023-02-11T06:30:16.434Z,18.10
2023-02-11T06:31:48.796Z,14.85
2023-02-11T06:33:21.162Z,16.70
2023-02-11T06:34:53.408Z,18.13
2023-02-11T06:36:25.958Z,17.13
2023-02-11T06:37:58.382Z,17.60
2023-02-11T06:39:33.159Z,18.77
2023-02-11T06:41:05.649Z,17.90
2023-02-11T06:42:39.464Z,16.13
2023-02-11T06:44:11.814Z,17.90
2023-02-11T06:45:44.180Z,18.08
2023-02-11T06:47:16.432Z,17.80
2023-02-11T06:48:52.651Z,17.38
2023-02-11T06:50:28.137Z,16.98
2023-02-11T06:52:00.405Z,17.92
2023-02-11T06:53:35.938Z,18.13
2023-02-11T06:55:10.565Z,18.40
2023-02-11T06:56:44.725Z,19.00
2023-02-11T06:58:17.152Z,17.13
2023-02-11T06:59:51.448Z,18.33
2023-02-11T07:01:27.095Z,17.90
2023-02-11T07:02:59.639Z,18.85
2023-02-11T07:04:32.076Z,18.45
2023-02-11T07:06:08.555Z,17.80
2023-02-11T07:07:43.514Z,19.40
2023-02-11T07:09:18.133Z,18.45
2023-02-11T07:10:50.295Z,18.05
2023-02-11T07:12:22.448Z,18.35
2023-02-11T07:13:56.940Z,18.30
2023-02-11T07:15:29.224Z,18.50
2023-02-11T07:17:05.082Z,21.55
2023-02-11T07:18:37.670Z,19.50
2023-02-11T07:20:12.755Z,18.90
2023-02-11T07:21:45.147Z,18.88
2023-02-11T07:23:17.613Z,19.08
2023-02-11T07:24:50.179Z,17.63
2023-02-11T07:26:24.392Z,19.10
2023-02-11T07:27:56.893Z,18.92
2023-02-11T07:29:32.670Z,19.60
2023-02-11T07:31:14.469Z,17.27
2023-02-11T07:32:46.774Z,20.25
2023-02-11T07:34:21.156Z,21.02
2023-02-11T07:35:53.537Z,18.48
2023-02-11T07:37:25.998Z,18.65
2023-02-11T07:38:58.467Z,19.55
2023-02-11T07:40:31.865Z,18.33
2023-02-11T07:42:04.646Z,19.85
2023-02-11T07:43:37.609Z,19.30
2023-02-11T07:46:45.879Z,19.05
2023-02-11T07:48:20.488Z,20.13
2023-02-11T07:49:56.161Z,21.08
2023-02-11T07:51:30.223Z,20.75
2023-02-11T07:53:03.608Z,19.65
2023-02-11T07:54:36.483Z,20.77
2023-02-11T07:56:10.128Z,20.85
2023-02-11T07:57:45.763Z,21.75
2023-02-11T07:59:17.884Z,19.52
2023-02-11T08:00:50.172Z,19.98
2023-02-11T08:02:22.411Z,20.05
2023-02-11T08:03:59.083Z,21.17
2023-02-11T08:05:31.331Z,21.17
2023-02-11T08:07:26.430Z,20.52
2023-02-11T08:08:59.314Z,21.33
2023-02-11T08:12:04.003Z,21.13
2023-02-11T08:13:45.748Z,23.33
2023-02-11T08:15:32.339Z,20.70
2023-02-11T08:17:05.120Z,21.58
2023-02-11T08:18:39.906Z,21.70
2023-02-11T08:20:12.395Z,22.50
2023-02-11T08:21:45.068Z,22.25
2023-02-11T08:23:19.752Z,23.63
2023-02-11T08:24:57.409Z,22.98
2023-02-11T08:26:41.542Z,24.75
2023-02-11T08:28:18.204Z,24.33
2023-02-11T08:29:50.568Z,26.02
2023-02-11T08:31:23.862Z,23.83
2023-02-11T08:32:56.875Z,24.17
2023-02-11T08:34:29.189Z,25.55
2023-02-11T08:37:38.597Z,26.02
2023-02-11T08:39:21.770Z,24.77
2023-02-11T08:40:53.992Z,25.00
2023-02-11T08:42:26.413Z,25.38
2023-02-11T08:43:59.043Z,26.83
2023-02-11T08:45:31.777Z,26.35
2023-02-11T08:47:04.124Z,25.58
2023-02-11T08:48:36.448Z,27.35
2023-02-11T08:50:16.532Z,26.38
2023-02-11T08:52:08.068Z,28.98
2023-02-11T08:53:40.518Z,29.17
2023-02-11T08:55:12.849Z,30.48
2023-02-11T08:56:46.584Z,28.73
2023-02-11T08:58:23.834Z,28.50
2023-02-11T08:59:56.167Z,29.85
2023-02-11T09:01:37.003Z,29.40
2023-02-11T09:03:15.901Z,30.25
2023-02-11T09:04:48.481Z,28.85
2023-02-11T09:06:23.970Z,29.55
2023-02-11T09:08:02.323Z,31.63
2023-02-11T09:09:43.226Z,30.27
2023-02-11T09:11:16.019Z,31.10
2023-02-11T09:14:39.368Z,30.70
2023-02-11T09:17:27.321Z,28.58
2023-02-11T09:19:23.753Z,30.02
2023-02-11T09:21:15.897Z,28.85
2023-02-11T09:22:52.915Z,30.17
2023-02-11T09:24:36.557Z,28.58
2023-02-11T09:26:36.404Z,30.58
2023-02-11T09:28:11.960Z,29.08
2023-02-11T09:31:19.775Z,30.67
2023-02-11T09:32:52.221Z,29.10
2023-02-11T09:34:27.579Z,30.65
2023-02-11T09:36:04.507Z,30.25
2023-02-11T09:37:38.669Z,31.45
2023-02-11T09:39:17.329Z,29.58
2023-02-11T09:40:49.852Z,28.70
2023-02-11T09:42:43.679Z,31.33
2023-02-11T09:44:28.592Z,31.20
2023-02-11T09:46:09.696Z,30.13
2023-02-11T09:48:23.348Z,32.05
2023-02-11T09:50:15.423Z,32.15
2023-02-11T09:52:01.764Z,32.95
2023-02-11T09:54:30.965Z,32.83
2023-02-11T09:56:30.052Z,34.17
2023-02-11T09:58:27.574Z,32.22
2023-02-11T10:00:25.682Z,32.53
2023-02-11T10:03:08.916Z,33.50
2023-02-11T10:05:20.198Z,31.13
2023-02-11T10:07:22.190Z,29.95
2023-02-11T10:09:15.271Z,31.50
2023-02-11T10:11:07.216Z,31.45
2023-02-11T10:13:22.147Z,31.00
2023-02-11T10:15:17.500Z,32.58
2023-02-11T10:17:11.123Z,33.00
2023-02-11T10:19:11.607Z,33.03
2023-02-11T10:23:45.906Z,34.67
2023-02-11T10:25:38.319Z,33.30
2023-02-11T10:43:37.315Z,31.45
2023-02-11T10:46:31.881Z,33.55
2023-02-11T10:53:48.544Z,32.78
2023-02-11T10:56:32.041Z,31.80
2023-02-11T11:03:05.036Z,34.13
2023-02-11T11:07:36.089Z,34.88
2023-02-11T11:10:20.813Z,33.00
2023-02-11T11:12:42.379Z,33.38
2023-02-11T11:15:17.498Z,33.47
2023-02-11T11:16:36.272Z,33.13
2023-02-11T11:18:22.444Z,32.50
2023-02-11T11:30:13.915Z,31.23
2023-02-11T11:36:25.780Z,30.92
2023-02-11T11:42:07.697Z,33.45
2023-02-11T11:44:05.471Z,31.83
2023-02-11T11:46:25.774Z,32.72
2023-02-11T11:48:10.459Z,33.53
2023-02-11T11:50:31.829Z,32.92
2023-02-11T11:52:49.690Z,31.67
2023-02-11T11:54:30.513Z,33.00
2023-02-11T11:56:10.670Z,33.00
2023-02-11T11:57:45.579Z,32.97
2023-02-11T11:59:18.097Z,32.92
2023-02-11T12:01:24.569Z,32.95
2023-02-11T12:03:15.566Z,32.17
2023-02-11T12:05:20.735Z,33.42
2023-02-11T12:07:36.120Z,32.30
2023-02-11T12:09:33.838Z,32.00
2023-02-11T12:18:21.896Z,32.55
2023-02-11T12:20:34.761Z,33.55
2023-02-11T12:22:48.738Z,32.50
2023-02-11T12:25:03.055Z,35.83
2023-02-11T12:26:55.906Z,34.08
2023-02-11T12:29:05.281Z,35.75
2023-02-11T12:32:07.114Z,33.97
2023-02-11T12:33:53.026Z,35.25
2023-02-11T12:35:33.936Z,33.60
2023-02-11T12:37:47.541Z,34.53
2023-02-11T12:40:08.376Z,32.97
2023-02-11T12:45:26.170Z,33.35
2023-02-11T12:47:50.252Z,36.05
2023-02-11T12:53:24.567Z,32.70
2023-02-11T13:03:03.086Z,32.53
2023-02-11T13:06:35.158Z,31.63
2023-02-11T13:08:14.814Z,35.20
2023-02-11T13:13:34.070Z,32.42
2023-02-11T13:15:14.303Z,33.28
2023-02-11T13:44:00.426Z,29.55
2023-02-11T14:53:00.231Z,30.50
2023-02-11T15:02:54.981Z,32.17
2023-02-11T15:03:14.198Z,33.45
2023-02-11T15:05:00.372Z,33.42
2023-02-11T15:10:02.688Z,32.88
2023-02-11T15:12:19.160Z,32.80
2023-02-11T15:14:09.363Z,31.73
2023-02-11T15:15:44.306Z,32.35
2023-02-11T15:19:03.767Z,32.28
2023-02-11T15:20:36.217Z,34.35
2023-02-11T15:22:25.983Z,33.50
2023-02-11T15:24:11.041Z,33.60
2023-02-11T15:25:53.156Z,35.55
2023-02-11T15:27:28.034Z,34.00
2023-02-11T15:29:02.272Z,32.75
2023-02-11T15:30:35.372Z,33.20
2023-02-11T15:32:18.128Z,32.05
2023-02-11T15:34:07.807Z,32.45
2023-02-11T15:35:41.348Z,31.50
2023-02-11T15:37:27.480Z,33.75
2023-02-11T15:39:34.622Z,33.53
2023-02-11T15:41:07.804Z,32.65
2023-02-11T15:42:52.198Z,32.42
2023-02-11T15:44:34.191Z,32.75
2023-02-11T15:46:11.353Z,32.28
2023-02-11T15:47:51.496Z,33.55
2023-02-11T15:49:25.086Z,33.22
2023-02-11T15:50:59.511Z,33.50
2023-02-11T15:52:33.046Z,32.38
2023-02-11T15:54:23.029Z,33.88
2023-02-11T15:56:24.464Z,35.47
2023-02-11T15:58:00.082Z,33.40
2023-02-11T15:59:40.722Z,33.90
2023-02-11T16:01:14.468Z,34.50
2023-02-11T16:02:47.055Z,36.22
2023-02-11T16:04:22.239Z,34.80
2023-02-11T16:05:56.826Z,34.92
2023-02-11T16:07:45.651Z,33.63
2023-02-11T16:09:17.696Z,35.78
2023-02-11T16:11:02.919Z,36.83
2023-02-11T16:12:38.367Z,33.10
2023-02-11T16:14:27.554Z,37.30
2023-02-11T16:16:22.171Z,34.55
2023-02-11T16:17:54.860Z,36.03
2023-02-11T16:19:28.148Z,36.15
2023-02-11T16:21:01.737Z,33.53
2023-02-11T16:22:38.348Z,35.25
2023-02-11T16:24:22.762Z,34.50
2023-02-11T16:25:59.938Z,34.65
2023-02-11T16:27:38.719Z,37.50
2023-02-11T16:29:17.155Z,35.17
2023-02-11T16:30:53.645Z,35.88
2023-02-11T16:32:28.159Z,36.90
2023-02-11T16:34:00.384Z,35.67
2023-02-11T16:35:33.082Z,37.35
2023-02-11T16:37:06.176Z,37.30
2023-02-11T16:40:12.896Z,35.95
2023-02-11T16:41:45.385Z,36.55
2023-02-11T16:43:22.170Z,34.22
2023-02-11T16:44:54.415Z,35.80
2023-02-11T16:46:28.966Z,36.83
2023-02-11T16:48:02.570Z,37.35
2023-02-11T16:49:42.010Z,37.33
2023-02-11T16:51:14.368Z,37.95
2023-02-11T16:52:49.042Z,39.17
2023-02-11T16:54:21.339Z,36.65
2023-02-11T16:55:56.151Z,38.45
2023-02-11T16:57:30.337Z,39.70
2023-02-11T16:59:02.958Z,38.45
2023-02-11T17:00:36.642Z,38.03
2023-02-11T17:02:24.489Z,38.28
2023-02-11T17:03:56.694Z,37.78
2023-02-11T17:05:28.860Z,38.20
2023-02-11T17:07:01.115Z,39.08
2023-02-11T17:08:35.874Z,39.25
2023-02-11T17:10:19.928Z,38.35
2023-02-11T17:11:56.986Z,37.83
2023-02-11T17:13:41.957Z,39.17
2023-02-11T17:15:14.383Z,38.53
2023-02-11T17:16:50.069Z,39.83
2023-02-11T17:18:22.440Z,38.45
2023-02-11T17:19:57.772Z,40.80
2023-02-11T17:21:34.592Z,38.95
2023-02-11T17:23:07.021Z,38.70
2023-02-11T17:24:40.859Z,40.28
2023-02-11T17:26:13.702Z,38.47
2023-02-11T17:29:23.959Z,36.20
2023-02-11T17:30:56.352Z,40.80
2023-02-11T17:32:30.009Z,42.03
2023-02-11T17:34:04.839Z,38.40
2023-02-11T17:35:41.815Z,41.53
2023-02-11T17:37:14.414Z,39.08
2023-02-11T17:38:49.166Z,39.92
2023-02-11T17:42:29.735Z,40.25
2023-02-11T17:44:01.625Z,36.67
2023-02-11T17:45:46.911Z,36.63
2023-02-11T17:47:16.188Z,38.75
2023-02-11T17:48:48.499Z,40.08
2023-02-11T17:50:48.159Z,38.70
2023-02-11T17:54:03.322Z,41.42
2023-02-11T17:55:13.115Z,39.10
2023-02-11T17:56:55.198Z,40.05
2023-02-11T17:58:33.767Z,41.05
2023-02-11T18:00:18.860Z,41.40
2023-02-11T18:02:03.754Z,41.05
2023-02-11T18:03:39.020Z,40.35
2023-02-11T18:05:25.178Z,41.45
2023-02-11T18:07:53.456Z,43.05
2023-02-11T18:09:27.957Z,39.78
2023-02-11T18:11:32.422Z,42.53
2023-02-11T18:13:32.570Z,39.63
2023-02-11T18:15:40.149Z,40.08
2023-02-11T18:17:31.306Z,40.38
2023-02-11T18:19:21.183Z,40.13
2023-02-11T18:21:41.151Z,39.60
2023-02-11T18:23:36.096Z,41.70
2023-02-11T18:25:27.658Z,40.95
2023-02-11T18:35:31.603Z,39.97
2023-02-11T18:38:18.313Z,41.22
2023-02-11T18:53:24.976Z,42.03
2023-02-11T19:36:24.053Z,48.90
2023-02-11T19:41:36.060Z,43.58
2023-02-11T19:45:20.215Z,43.40
2023-02-11T19:47:30.194Z,44.85
2023-02-11T19:49:07.677Z,42.75
2023-02-11T19:57:25.202Z,40.33
2023-02-11T19:59:11.019Z,42.00
2023-02-11T20:05:23.974Z,41.42
2023-02-11T20:07:06.336Z,50.85
2023-02-11T20:09:45.743Z,49.47
2023-02-11T20:11:38.596Z,41.38
2023-02-11T20:13:22.730Z,42.25
2023-02-11T20:17:08.088Z,42.20
2023-02-11T20:18:40.739Z,42.50
2023-02-11T20:20:13.213Z,41.70
2023-02-11T20:21:53.141Z,41.05
2023-02-11T20:23:41.071Z,41.50
2023-02-11T20:25:29.666Z,40.90
2023-02-11T20:27:08.577Z,40.88
2023-02-11T20:28:41.931Z,40.97
2023-02-11T20:30:14.661Z,41.70
2023-02-11T20:31:54.792Z,41.47
2023-02-11T20:33:30.079Z,41.78
2023-02-11T20:35:02.921Z,42.45
2023-02-11T20:36:37.884Z,41.15
2023-02-11T20:38:09.806Z,43.08
2023-02-11T20:39:45.015Z,40.73
2023-02-11T20:41:23.630Z,41.92
2023-02-11T20:42:56.936Z,41.75
2023-02-11T20:44:29.133Z,41.63
2023-02-11T20:46:05.259Z,40.55
2023-02-11T20:47:38.406Z,42.47
2023-02-11T20:50:48.737Z,41.30
2023-02-11T20:52:20.787Z,42.03
2023-02-11T20:53:53.477Z,43.05
2023-02-11T20:55:25.534Z,45.08
2023-02-11T20:56:58.466Z,44.37
2023-02-11T21:00:03.320Z,38.65
2023-02-11T21:03:10.974Z,40.20
2023-02-11T21:04:42.883Z,40.97
2023-02-11T21:06:14.927Z,43.85
2023-02-11T21:07:47.017Z,42.03
2023-02-11T21:09:22.123Z,43.30
2023-02-11T21:10:57.480Z,42.28
2023-02-11T21:12:38.120Z,42.25
2023-02-11T21:14:10.465Z,41.72
2023-02-11T21:15:42.558Z,41.45
2023-02-11T21:17:14.463Z,41.78
2023-02-11T21:18:47.472Z,45.22
2023-02-11T21:20:19.504Z,41.22
2023-02-11T21:21:51.617Z,41.27
2023-02-11T21:23:24.145Z,40.70
2023-02-11T21:24:56.104Z,43.40
2023-02-11T21:26:28.167Z,41.23
2023-02-11T21:28:00.275Z,41.10
2023-02-11T21:29:34.042Z,42.58
2023-02-11T21:31:09.060Z,41.40
2023-02-11T21:32:47.786Z,40.30
2023-02-11T21:34:22.288Z,40.17
2023-02-11T21:36:25.688Z,41.42
2023-02-11T21:38:03.267Z,39.35
2023-02-11T21:39:40.091Z,39.58
2023-02-11T21:41:31.255Z,40.03
2023-02-11T21:43:09.759Z,38.80
2023-02-11T21:44:53.280Z,40.03
2023-02-11T21:46:25.492Z,31.38
2023-02-11T21:48:25.154Z,40.60
2023-02-11T21:50:00.379Z,40.47
2023-02-11T21:51:32.500Z,41.88
2023-02-11T21:53:06.923Z,39.72
2023-02-11T21:54:39.118Z,41.72
2023-02-11T21:56:22.554Z,44.13
2023-02-11T21:57:55.124Z,42.63
2023-02-11T21:59:33.630Z,42.28
2023-02-11T22:01:28.578Z,42.35
2023-02-11T22:03:00.922Z,40.55
2023-02-11T22:04:33.622Z,41.28
2023-02-11T22:06:21.428Z,43.17
2023-02-11T22:08:49.149Z,40.65
2023-02-11T22:10:33.903Z,39.83
2023-02-11T22:12:11.613Z,41.50
2023-02-11T22:13:46.559Z,40.60
2023-02-11T22:15:18.628Z,41.53
2023-02-11T22:16:50.761Z,41.47
2023-02-11T22:18:23.059Z,43.00
2023-02-11T22:19:57.433Z,41.72
2023-02-11T22:21:29.612Z,42.92
2023-02-11T22:23:01.606Z,42.25
2023-02-11T22:24:36.043Z,42.63
2023-02-11T22:26:17.298Z,41.83
2023-02-11T22:27:49.371Z,41.10
2023-02-11T22:29:21.351Z,39.78
2023-02-11T22:30:57.749Z,42.83
2023-02-11T22:32:29.865Z,39.97
2023-02-11T22:34:06.151Z,41.15
2023-02-11T22:35:40.532Z,41.67
2023-02-11T22:37:14.569Z,41.77
2023-02-11T22:38:47.091Z,42.92
2023-02-11T22:40:21.843Z,41.92
2023-02-11T22:41:56.827Z,40.10
2023-02-11T22:43:28.992Z,44.28
2023-02-11T22:45:03.578Z,41.83
2023-02-11T22:46:36.259Z,42.60
2023-02-11T22:48:08.171Z,42.22
2023-02-11T22:49:41.519Z,44.63
2023-02-11T22:51:21.204Z,43.17
2023-02-11T22:52:53.754Z,43.97
2023-02-11T22:54:25.782Z,41.67
2023-02-11T22:56:02.222Z,43.23
2023-02-11T22:57:34.272Z,40.55
2023-02-11T22:59:08.445Z,41.70
2023-02-11T23:00:41.632Z,40.28
2023-02-11T23:02:15.951Z,41.17
2023-02-11T23:03:48.428Z,43.30
2023-02-11T23:05:20.502Z,42.17
2023-02-11T23:06:52.539Z,39.92
2023-02-11T23:08:25.232Z,41.77
2023-02-11T23:09:57.126Z,41.00
2023-02-11T23:11:30.811Z,39.40
2023-02-11T23:13:06.970Z,41.88
2023-02-11T23:14:39.525Z,39.47
2023-02-11T23:16:14.814Z,42.20
2023-02-11T23:17:49.586Z,41.45
2023-02-11T23:19:21.951Z,41.75
2023-02-11T23:20:54.427Z,40.67
2023-02-11T23:22:26.792Z,41.15
2023-02-11T23:24:03.660Z,41.30
2023-02-11T23:25:35.891Z,40.22
2023-02-11T23:27:08.081Z,42.30
2023-02-11T23:28:40.350Z,34.25
2023-02-11T23:30:13.217Z,41.75
2023-02-11T23:31:46.749Z,44.13
2023-02-11T23:33:19.486Z,43.33
2023-02-11T23:34:52.972Z,42.72
2023-02-11T23:36:25.234Z,43.85
2023-02-11T23:38:00.298Z,42.90
2023-02-11T23:39:32.538Z,42.90
2023-02-11T23:41:05.020Z,39.63
2023-02-11T23:42:37.363Z,39.83
2023-02-11T23:44:10.417Z,41.90
2023-02-11T23:47:16.265Z,40.55
2023-02-11T23:48:49.271Z,39.83
2023-02-11T23:50:21.619Z,41.45
2023-02-11T23:51:53.918Z,40.70
2023-02-11T23:53:26.120Z,41.13
2023-02-11T23:54:58.339Z,33.30
2023-02-11T23:56:30.828Z,42.38
2023-02-11T23:58:04.959Z,40.92
2023-02-11T23:59:37.216Z,39.97
